createdAt,value
2017-09-26T00:00:06.308Z,0.65
2017-09-26T00:01:06.292Z,0.65
2017-09-26T00:02:06.276Z,0.70
2017-09-26T00:03:06.259Z,0.58
2017-09-26T00:04:06.247Z,0.53
2017-09-26T00:05:06.227Z,0.66
2017-09-26T00:06:06.215Z,0.57
2017-09-26T00:07:06.194Z,0.60
2017-09-26T00:08:06.177Z,0.61
2017-09-26T00:09:06.161Z,0.58
2017-09-26T00:10:06.148Z,0.55
2017-09-26T00:11:06.129Z,0.62
2017-09-26T00:12:06.112Z,0.62
2017-09-26T00:13:06.095Z,0.58
2017-09-26T00:14:06.080Z,0.60
2017-09-26T00:15:06.063Z,0.49
2017-09-26T00:16:06.047Z,0.53
2017-09-26T00:17:06.029Z,0.53
2017-09-26T00:18:06.014Z,0.58
2017-09-26T00:19:05.997Z,0.60
2017-09-26T00:20:05.981Z,0.62
2017-09-26T00:21:05.963Z,0.65
2017-09-26T00:22:05.948Z,0.57
2017-09-26T00:23:05.932Z,0.62
2017-09-26T00:24:05.915Z,0.65
2017-09-26T00:25:05.899Z,0.60
2017-09-26T00:26:05.882Z,0.62
2017-09-26T00:27:05.866Z,0.69
2017-09-26T00:28:05.849Z,0.72
2017-09-26T00:29:05.832Z,0.65
2017-09-26T00:30:05.817Z,0.57
2017-09-26T00:31:05.801Z,0.68
2017-09-26T00:32:05.784Z,0.75
2017-09-26T00:33:05.768Z,0.80
2017-09-26T00:34:05.751Z,0.72
2017-09-26T00:35:05.736Z,0.65
2017-09-26T00:36:05.720Z,0.65
2017-09-26T00:37:05.703Z,0.69
2017-09-26T00:38:05.687Z,0.78
2017-09-26T00:39:05.671Z,0.84
2017-09-26T00:40:05.656Z,0.73
2017-09-26T00:41:05.638Z,0.78
2017-09-26T00:42:05.622Z,0.84
2017-09-26T00:43:05.606Z,0.79
2017-09-26T00:44:05.589Z,0.78
2017-09-26T00:45:05.574Z,0.72
2017-09-26T00:46:05.557Z,0.83
2017-09-26T00:47:05.542Z,0.73
2017-09-26T00:48:05.529Z,0.68
2017-09-26T00:49:05.507Z,0.60
2017-09-26T00:50:05.493Z,0.72
2017-09-26T00:51:05.476Z,0.66
2017-09-26T00:52:05.459Z,0.62
2017-09-26T00:53:05.443Z,0.78
2017-09-26T00:54:05.427Z,0.66
2017-09-26T00:55:05.411Z,0.87
2017-09-26T00:56:05.395Z,0.72
2017-09-26T00:57:05.378Z,0.68
2017-09-26T00:58:05.365Z,0.79
2017-09-26T00:59:05.352Z,0.86
2017-09-26T01:00:05.329Z,0.84
2017-09-26T01:01:05.313Z,0.79
2017-09-26T01:02:05.302Z,0.97
2017-09-26T01:03:05.282Z,1.04
2017-09-26T01:04:05.265Z,1.12
2017-09-26T01:05:05.250Z,1.37
2017-09-26T01:06:05.234Z,1.50
2017-09-26T01:07:05.217Z,1.68
2017-09-26T01:08:05.202Z,1.86
2017-09-26T01:09:05.188Z,1.73
2017-09-26T01:10:05.172Z,1.59
2017-09-26T01:11:05.156Z,1.48
2017-09-26T01:12:05.141Z,1.27
2017-09-26T01:13:05.125Z,1.24
2017-09-26T01:14:05.110Z,1.27
2017-09-26T01:15:05.098Z,1.37
2017-09-26T01:16:05.080Z,1.34
2017-09-26T01:17:05.063Z,1.32
2017-09-26T01:18:05.048Z,1.37
2017-09-26T01:19:05.034Z,1.47
2017-09-26T01:20:05.019Z,1.73
2017-09-26T01:21:05.003Z,1.80
2017-09-26T01:22:04.987Z,1.88
2017-09-26T01:23:04.973Z,1.93
2017-09-26T01:24:04.957Z,1.95
2017-09-26T01:25:04.941Z,2.03
2017-09-26T01:26:04.927Z,2.03
2017-09-26T01:27:04.912Z,2.09
2017-09-26T01:28:04.896Z,2.10
2017-09-26T01:29:04.882Z,1.99
2017-09-26T01:30:04.867Z,1.88
2017-09-26T01:31:04.852Z,1.99
2017-09-26T01:32:04.838Z,2.02
2017-09-26T01:33:04.821Z,2.14
2017-09-26T01:34:04.808Z,1.98
2017-09-26T01:35:04.792Z,2.17
2017-09-26T01:36:04.777Z,2.07
2017-09-26T01:37:04.762Z,1.95
2017-09-26T01:38:04.747Z,1.70
2017-09-26T01:39:04.731Z,1.60
2017-09-26T01:40:04.717Z,1.76
2017-09-26T01:41:04.702Z,1.70
2017-09-26T01:42:04.688Z,1.73
2017-09-26T01:43:04.671Z,1.69
2017-09-26T01:44:04.657Z,1.58
2017-09-26T01:45:04.641Z,1.52
2017-09-26T01:46:04.625Z,1.26
2017-09-26T01:47:04.610Z,1.22
2017-09-26T01:48:04.597Z,1.16
2017-09-26T01:49:04.580Z,1.24
2017-09-26T01:50:04.566Z,1.08
2017-09-26T01:51:04.550Z,1.09
2017-09-26T01:52:04.539Z,0.97
2017-09-26T01:53:04.521Z,0.98
2017-09-26T01:54:04.505Z,1.02
2017-09-26T01:55:04.489Z,1.08
2017-09-26T01:56:04.475Z,1.12
2017-09-26T01:57:04.457Z,1.14
2017-09-26T01:58:04.444Z,1.15
2017-09-26T01:59:04.429Z,1.30
2017-09-26T02:00:04.414Z,1.40
2017-09-26T02:01:04.396Z,1.59
2017-09-26T02:02:04.381Z,1.83
2017-09-26T02:03:04.369Z,2.06
2017-09-26T02:04:04.353Z,1.81
2017-09-26T02:05:04.337Z,1.72
2017-09-26T02:06:04.321Z,1.51
2017-09-26T02:07:04.311Z,1.70
2017-09-26T02:08:04.293Z,1.84
2017-09-26T02:09:04.276Z,2.03
2017-09-26T02:10:04.261Z,2.06
2017-09-26T02:11:04.247Z,2.14
2017-09-26T02:12:04.235Z,2.03
2017-09-26T02:13:04.216Z,1.80
2017-09-26T02:14:04.201Z,1.59
2017-09-26T02:15:04.187Z,1.34
2017-09-26T02:16:04.171Z,1.34
2017-09-26T02:17:04.156Z,1.29
2017-09-26T02:18:04.141Z,1.26
2017-09-26T02:19:04.127Z,1.14
2017-09-26T02:20:04.111Z,1.22
2017-09-26T02:21:04.112Z,1.37
2017-09-26T02:22:04.081Z,1.55
2017-09-26T02:23:04.065Z,1.45
2017-09-26T02:24:04.051Z,1.26
2017-09-26T02:25:04.036Z,1.12
2017-09-26T02:26:04.020Z,1.09
2017-09-26T02:27:04.005Z,1.04
2017-09-26T02:28:03.990Z,0.96
2017-09-26T02:29:03.974Z,1.09
2017-09-26T02:30:03.960Z,0.98
2017-09-26T02:31:03.945Z,0.97
2017-09-26T02:32:03.929Z,0.86
2017-09-26T02:33:03.914Z,0.87
2017-09-26T02:34:03.897Z,1.00
2017-09-26T02:35:03.883Z,1.04
2017-09-26T02:36:03.868Z,0.90
2017-09-26T02:37:03.851Z,1.00
2017-09-26T02:38:03.837Z,1.06
2017-09-26T02:39:03.821Z,1.00
2017-09-26T02:40:03.809Z,0.94
2017-09-26T02:41:03.789Z,0.88
2017-09-26T02:42:03.773Z,0.87
2017-09-26T02:43:03.757Z,1.06
2017-09-26T02:44:03.742Z,1.23
2017-09-26T02:45:03.726Z,1.26
2017-09-26T02:46:03.710Z,1.51
2017-09-26T02:47:03.726Z,1.42
2017-09-26T02:48:03.679Z,1.55
2017-09-26T02:49:03.663Z,1.63
2017-09-26T02:50:03.648Z,1.72
2017-09-26T02:51:03.631Z,1.81
2017-09-26T02:52:03.617Z,1.52
2017-09-26T02:53:03.602Z,1.44
2017-09-26T02:54:03.585Z,1.32
2017-09-26T02:55:03.571Z,1.27
2017-09-26T02:56:03.556Z,1.33
2017-09-26T02:57:03.539Z,1.41
2017-09-26T02:58:03.523Z,1.65
2017-09-26T02:59:03.509Z,1.76
2017-09-26T03:00:03.493Z,1.95
2017-09-26T03:01:03.477Z,2.02
2017-09-26T03:02:03.463Z,2.03
2017-09-26T03:03:03.446Z,1.98
2017-09-26T03:04:03.432Z,1.87
2017-09-26T03:05:03.417Z,1.65
2017-09-26T03:06:03.402Z,1.30
2017-09-26T03:07:03.387Z,1.05
2017-09-26T03:08:03.371Z,1.04
2017-09-26T03:09:03.357Z,1.00
2017-09-26T03:10:03.339Z,1.14
2017-09-26T03:11:03.325Z,1.09
2017-09-26T03:12:03.310Z,1.04
2017-09-26T03:13:03.293Z,0.93
2017-09-26T03:14:03.277Z,1.00
2017-09-26T03:15:03.262Z,1.12
2017-09-26T03:16:03.252Z,0.98
2017-09-26T03:17:03.230Z,0.80
2017-09-26T03:18:03.216Z,0.84
2017-09-26T03:19:03.210Z,0.75
2017-09-26T03:20:03.185Z,0.86
2017-09-26T03:21:03.168Z,0.87
2017-09-26T03:22:03.153Z,0.87
2017-09-26T03:23:03.136Z,0.98
2017-09-26T03:24:03.120Z,1.06
2017-09-26T03:25:03.104Z,1.20
2017-09-26T03:26:03.089Z,1.11
2017-09-26T03:27:03.073Z,1.12
2017-09-26T03:28:03.058Z,1.12
2017-09-26T03:29:03.042Z,1.15
2017-09-26T03:30:03.055Z,1.26
2017-09-26T03:31:03.017Z,1.33
2017-09-26T03:32:02.996Z,1.26
2017-09-26T03:33:02.980Z,1.09
2017-09-26T03:34:02.969Z,1.05
2017-09-26T03:35:02.948Z,0.87
2017-09-26T03:36:02.935Z,0.66
2017-09-26T03:37:02.918Z,0.66
2017-09-26T03:38:02.903Z,0.75
2017-09-26T03:39:02.888Z,0.53
2017-09-26T03:40:02.873Z,0.57
2017-09-26T03:41:02.856Z,0.51
2017-09-26T03:42:02.839Z,0.44
2017-09-26T03:43:02.824Z,0.49
2017-09-26T03:44:02.815Z,0.41
2017-09-26T03:45:02.792Z,0.39
2017-09-26T03:46:02.778Z,0.41
2017-09-26T03:47:02.761Z,0.44
2017-09-26T03:48:02.778Z,0.39
2017-09-26T03:49:02.727Z,0.42
2017-09-26T03:50:02.711Z,0.57
2017-09-26T03:51:02.696Z,0.50
2017-09-26T03:52:02.681Z,0.47
2017-09-26T03:53:02.665Z,0.55
2017-09-26T03:54:02.649Z,0.41
2017-09-26T03:55:02.635Z,0.42
2017-09-26T03:56:02.616Z,0.41
2017-09-26T03:57:02.600Z,0.46
2017-09-26T03:58:02.582Z,0.61
2017-09-26T03:59:02.568Z,0.53
2017-09-26T04:00:02.552Z,0.68
2017-09-26T04:01:02.536Z,0.58
2017-09-26T04:02:02.519Z,0.73
2017-09-26T04:03:02.504Z,0.69
2017-09-26T04:04:02.487Z,0.70
2017-09-26T04:05:02.471Z,0.80
2017-09-26T04:06:02.455Z,0.83
2017-09-26T04:07:02.439Z,0.83
2017-09-26T04:08:02.425Z,0.66
2017-09-26T04:09:02.408Z,0.66
2017-09-26T04:10:02.392Z,0.68
2017-09-26T04:11:02.377Z,0.60
2017-09-26T04:12:02.361Z,0.55
2017-09-26T04:13:02.344Z,0.39
2017-09-26T04:14:02.328Z,0.26
2017-09-26T04:15:02.313Z,0.33
2017-09-26T04:16:02.297Z,0.26
2017-09-26T04:17:02.281Z,0.41
2017-09-26T04:18:02.265Z,0.47
2017-09-26T04:19:02.249Z,0.35
2017-09-26T04:20:02.233Z,0.26
2017-09-26T04:21:02.216Z,0.35
2017-09-26T04:22:02.200Z,0.31
2017-09-26T04:23:02.184Z,0.39
2017-09-26T04:24:02.169Z,0.41
2017-09-26T04:25:02.152Z,0.26
2017-09-26T04:26:02.136Z,0.32
2017-09-26T04:27:02.124Z,0.36
2017-09-26T04:28:02.104Z,0.29
2017-09-26T04:29:02.088Z,0.38
2017-09-26T04:30:02.072Z,0.50
2017-09-26T04:31:02.056Z,0.60
2017-09-26T04:32:02.041Z,0.70
2017-09-26T04:33:02.056Z,0.58
2017-09-26T04:34:02.008Z,0.57
2017-09-26T04:35:01.993Z,0.51
2017-09-26T04:36:01.978Z,0.36
2017-09-26T04:37:01.961Z,0.29
2017-09-26T04:38:01.945Z,0.26
2017-09-26T04:39:01.933Z,0.39
2017-09-26T04:40:01.914Z,0.41
2017-09-26T04:41:01.898Z,0.46
2017-09-26T04:42:01.882Z,0.60
2017-09-26T04:43:01.865Z,0.65
2017-09-26T04:44:01.850Z,0.73
2017-09-26T04:45:01.834Z,0.88
2017-09-26T04:46:01.818Z,0.79
2017-09-26T04:47:01.802Z,0.94
2017-09-26T04:48:01.786Z,0.72
2017-09-26T04:49:01.769Z,0.83
2017-09-26T04:50:01.753Z,0.90
2017-09-26T04:51:01.739Z,0.88
2017-09-26T04:52:01.723Z,0.97
2017-09-26T04:53:01.706Z,0.97
2017-09-26T04:54:01.691Z,0.88
2017-09-26T04:55:01.676Z,0.87
2017-09-26T04:56:01.659Z,0.69
2017-09-26T04:57:01.644Z,0.60
2017-09-26T04:58:01.627Z,0.39
2017-09-26T04:59:01.612Z,0.41
2017-09-26T05:00:01.596Z,0.47
2017-09-26T05:01:01.583Z,0.49
2017-09-26T05:02:01.564Z,0.50
2017-09-26T05:03:01.549Z,0.41
2017-09-26T05:04:01.518Z,0.44
2017-09-26T05:05:01.502Z,0.33
2017-09-26T05:06:01.486Z,0.21
2017-09-26T05:07:01.473Z,0.21
2017-09-26T05:08:01.454Z,0.24
2017-09-26T05:09:01.438Z,0.24
2017-09-26T05:10:01.423Z,0.23
2017-09-26T05:11:01.408Z,0.42
2017-09-26T05:12:01.392Z,0.31
2017-09-26T05:13:01.376Z,0.33
2017-09-26T05:14:01.360Z,0.35
2017-09-26T05:15:01.344Z,0.36
2017-09-26T05:16:01.329Z,0.39
2017-09-26T05:17:01.313Z,0.38
2017-09-26T05:18:01.297Z,0.62
2017-09-26T05:19:01.281Z,0.90
2017-09-26T05:20:01.267Z,1.00
2017-09-26T05:21:01.250Z,1.16
2017-09-26T05:22:01.234Z,1.29
2017-09-26T05:23:01.219Z,1.50
2017-09-26T05:24:01.203Z,1.50
2017-09-26T05:25:01.189Z,1.37
2017-09-26T05:26:01.172Z,1.15
2017-09-26T05:27:01.159Z,1.00
2017-09-26T05:28:01.142Z,0.84
2017-09-26T05:29:01.125Z,0.70
2017-09-26T05:30:01.110Z,0.55
2017-09-26T05:31:01.096Z,0.55
2017-09-26T05:32:01.080Z,0.53
2017-09-26T05:33:01.063Z,0.53
2017-09-26T05:34:01.048Z,0.53
2017-09-26T05:35:01.032Z,0.65
2017-09-26T05:36:01.017Z,0.61
2017-09-26T05:37:01.004Z,0.57
2017-09-26T05:38:00.985Z,0.65
2017-09-26T05:39:00.970Z,0.69
2017-09-26T05:40:00.955Z,0.78
2017-09-26T05:41:00.945Z,0.86
2017-09-26T05:42:00.923Z,0.91
2017-09-26T05:43:00.906Z,0.87
2017-09-26T05:44:00.892Z,0.98
2017-09-26T05:45:00.877Z,1.08
2017-09-26T05:46:00.865Z,1.09
2017-09-26T05:47:00.849Z,1.16
2017-09-26T05:48:00.830Z,1.23
2017-09-26T05:49:00.814Z,1.34
2017-09-26T05:50:00.801Z,1.44
2017-09-26T05:51:00.784Z,1.44
2017-09-26T05:52:00.769Z,1.36
2017-09-26T05:53:00.753Z,1.50
2017-09-26T05:54:00.741Z,1.50
2017-09-26T05:55:00.727Z,1.59
2017-09-26T05:56:00.708Z,1.62
2017-09-26T05:57:00.692Z,1.66
2017-09-26T05:58:00.677Z,1.70
2017-09-26T05:59:00.662Z,1.65
2017-09-26T06:00:00.647Z,1.55
2017-09-26T06:01:00.631Z,1.50
2017-09-26T06:02:00.619Z,1.65
2017-09-26T06:03:00.602Z,1.73
2017-09-26T06:04:00.588Z,1.70
2017-09-26T06:05:00.572Z,1.81
2017-09-26T06:06:00.557Z,1.87
2017-09-26T06:07:00.543Z,2.00
2017-09-26T06:08:00.528Z,2.10
2017-09-26T06:09:00.513Z,1.98
2017-09-26T06:10:00.497Z,2.00
2017-09-26T06:11:00.484Z,2.02
2017-09-26T06:12:00.472Z,2.05
2017-09-26T06:13:00.455Z,1.99
2017-09-26T06:14:00.440Z,1.83
2017-09-26T06:15:00.426Z,1.80
2017-09-26T06:16:00.412Z,1.93
2017-09-26T06:17:00.397Z,2.07
2017-09-26T06:18:00.384Z,2.46
2017-09-26T06:19:00.448Z,2.85
2017-09-26T06:20:00.355Z,3.00
2017-09-26T06:21:00.339Z,2.74
2017-09-26T06:22:00.324Z,2.61
2017-09-26T06:23:00.315Z,2.63
2017-09-26T06:24:00.297Z,2.53
2017-09-26T06:25:00.282Z,2.49
2017-09-26T06:26:00.268Z,2.75
2017-09-26T06:27:00.255Z,2.97
2017-09-26T06:28:00.242Z,3.23
2017-09-26T06:29:00.227Z,3.65
2017-09-26T06:30:00.212Z,3.94
2017-09-26T06:31:00.198Z,4.50
2017-09-26T06:32:00.186Z,4.86
2017-09-26T06:33:00.170Z,5.09
2017-09-26T06:34:00.157Z,5.22
2017-09-26T06:35:00.143Z,5.46
2017-09-26T06:36:00.131Z,5.60
2017-09-26T06:37:00.116Z,5.81
2017-09-26T06:38:00.131Z,6.09
2017-09-26T06:39:00.091Z,6.11
2017-09-26T06:40:00.080Z,6.27
2017-09-26T06:41:00.063Z,6.33
2017-09-26T06:42:00.051Z,6.31
2017-09-26T06:43:00.042Z,6.31
2017-09-26T06:44:00.026Z,6.40
2017-09-26T06:45:00.012Z,6.59
2017-09-26T06:45:59.999Z,6.81
2017-09-26T06:46:59.989Z,6.97
2017-09-26T06:47:59.974Z,7.12
2017-09-26T06:48:59.962Z,7.06
2017-09-26T06:49:59.949Z,6.91
2017-09-26T06:50:59.936Z,7.10
2017-09-26T06:51:59.924Z,7.17
2017-09-26T06:52:59.912Z,7.43
2017-09-26T06:53:59.899Z,7.46
2017-09-26T06:54:59.887Z,7.58
2017-09-26T06:55:59.874Z,7.75
2017-09-26T06:56:59.861Z,7.68
2017-09-26T06:57:59.848Z,7.45
2017-09-26T06:58:59.837Z,7.20
2017-09-26T06:59:59.825Z,5.83
2017-09-26T07:00:59.814Z,5.07
2017-09-26T07:01:59.801Z,4.42
2017-09-26T07:02:59.788Z,4.09
2017-09-26T07:03:59.777Z,3.58
2017-09-26T07:04:59.763Z,3.66
2017-09-26T07:05:59.796Z,3.62
2017-09-26T07:06:59.739Z,3.36
2017-09-26T07:07:59.726Z,3.17
2017-09-26T07:08:59.712Z,3.23
2017-09-26T07:09:59.699Z,3.33
2017-09-26T07:10:59.687Z,3.20
2017-09-26T07:11:59.674Z,3.02
2017-09-26T07:12:59.659Z,3.06
2017-09-26T07:13:59.647Z,3.23
2017-09-26T07:14:59.634Z,3.33
2017-09-26T07:15:59.622Z,3.66
2017-09-26T07:16:59.606Z,3.72
2017-09-26T07:17:59.593Z,3.72
2017-09-26T07:18:59.579Z,3.84
2017-09-26T07:19:59.567Z,3.86
2017-09-26T07:20:59.552Z,3.68
2017-09-26T07:21:59.540Z,3.65
2017-09-26T07:22:59.526Z,3.33
2017-09-26T07:23:59.513Z,3.13
2017-09-26T07:24:59.498Z,3.03
2017-09-26T07:25:59.485Z,3.02
2017-09-26T07:26:59.477Z,2.99
2017-09-26T07:27:59.459Z,3.06
2017-09-26T07:28:59.443Z,3.13
2017-09-26T07:29:59.430Z,3.06
2017-09-26T07:30:59.417Z,2.84
2017-09-26T07:31:59.402Z,3.03
2017-09-26T07:32:59.388Z,3.20
2017-09-26T07:33:59.374Z,2.95
2017-09-26T07:34:59.360Z,2.97
2017-09-26T07:35:59.347Z,3.36
2017-09-26T07:36:59.331Z,3.54
2017-09-26T07:37:59.318Z,3.80
2017-09-26T07:38:59.305Z,3.72
2017-09-26T07:39:59.290Z,3.86
2017-09-26T07:40:59.275Z,3.55
2017-09-26T07:41:59.261Z,3.62
2017-09-26T07:42:59.248Z,3.61
2017-09-26T07:43:59.234Z,3.57
2017-09-26T07:44:59.219Z,3.61
2017-09-26T07:45:59.206Z,3.73
2017-09-26T07:46:59.192Z,3.91
2017-09-26T07:47:59.179Z,3.73
2017-09-26T07:48:59.164Z,3.84
2017-09-26T07:49:59.150Z,3.91
2017-09-26T07:50:59.136Z,3.98
2017-09-26T07:51:59.124Z,3.76
2017-09-26T07:52:59.111Z,3.90
2017-09-26T07:53:59.095Z,3.94
2017-09-26T07:54:59.082Z,4.37
2017-09-26T07:55:59.069Z,4.59
2017-09-26T07:56:59.055Z,4.65
2017-09-26T07:57:59.042Z,4.29
2017-09-26T07:58:59.035Z,4.36
2017-09-26T07:59:59.017Z,4.30
2017-09-26T08:00:59.003Z,4.36
2017-09-26T08:01:58.990Z,4.09
2017-09-26T08:02:58.976Z,4.37
2017-09-26T08:03:58.963Z,4.63
2017-09-26T08:04:58.951Z,4.58
2017-09-26T08:05:58.937Z,4.55
2017-09-26T08:06:58.924Z,4.44
2017-09-26T08:07:58.911Z,4.30
2017-09-26T08:08:58.897Z,4.24
2017-09-26T08:09:58.886Z,4.36
2017-09-26T08:10:58.872Z,4.12
2017-09-26T08:11:58.860Z,4.20
2017-09-26T08:12:58.846Z,4.12
2017-09-26T08:13:58.833Z,4.20
2017-09-26T08:14:58.820Z,4.08
2017-09-26T08:15:58.808Z,4.24
2017-09-26T08:16:58.794Z,4.37
2017-09-26T08:17:58.781Z,4.51
2017-09-26T08:18:58.769Z,5.27
2017-09-26T08:19:58.756Z,6.00
2017-09-26T08:20:58.743Z,5.86
2017-09-26T08:21:58.732Z,5.82
2017-09-26T08:22:58.718Z,5.94
2017-09-26T08:23:58.707Z,6.12
2017-09-26T08:24:58.695Z,6.43
2017-09-26T08:25:58.683Z,6.62
2017-09-26T08:26:58.670Z,6.74
2017-09-26T08:27:58.659Z,5.81
2017-09-26T08:28:58.646Z,5.22
2017-09-26T08:29:58.636Z,4.97
2017-09-26T08:30:58.627Z,5.85
2017-09-26T08:31:58.617Z,6.71
2017-09-26T08:32:58.601Z,7.57
2017-09-26T08:33:58.618Z,7.58
2017-09-26T08:34:58.578Z,7.45
2017-09-26T08:35:58.569Z,7.80
2017-09-26T08:36:58.555Z,8.36
2017-09-26T08:37:58.543Z,8.44
2017-09-26T08:38:58.532Z,8.40
2017-09-26T08:39:58.524Z,8.50
2017-09-26T08:40:58.513Z,8.00
2017-09-26T08:41:58.500Z,7.71
2017-09-26T08:42:58.489Z,7.98
2017-09-26T08:43:58.479Z,8.36
2017-09-26T08:44:58.469Z,8.63
2017-09-26T08:45:58.457Z,8.83
2017-09-26T08:46:58.448Z,8.83
2017-09-26T08:47:58.438Z,7.24
2017-09-26T08:48:58.427Z,7.32
2017-09-26T08:49:58.416Z,8.05
2017-09-26T08:50:58.406Z,7.95
2017-09-26T08:51:58.405Z,7.95
2017-09-26T08:52:58.385Z,8.11
2017-09-26T08:53:58.375Z,7.32
2017-09-26T08:54:58.372Z,6.89
2017-09-26T08:55:58.354Z,7.12
2017-09-26T08:56:58.341Z,7.67
2017-09-26T08:57:58.331Z,7.89
2017-09-26T08:58:58.321Z,7.80
2017-09-26T08:59:58.317Z,7.87
2017-09-26T09:00:58.299Z,7.89
2017-09-26T09:01:58.287Z,8.37
2017-09-26T09:02:58.277Z,7.89
2017-09-26T09:03:58.265Z,7.87
2017-09-26T09:04:58.258Z,8.28
2017-09-26T09:05:58.243Z,8.66
2017-09-26T09:06:58.232Z,7.71
2017-09-26T09:07:58.222Z,7.43
2017-09-26T09:08:58.210Z,6.94
2017-09-26T09:09:58.199Z,7.63
2017-09-26T09:10:58.192Z,8.29
2017-09-26T09:11:58.177Z,8.56
2017-09-26T09:12:58.167Z,8.94
2017-09-26T09:13:58.155Z,8.26
2017-09-26T09:14:58.150Z,7.53
2017-09-26T09:15:58.134Z,7.74
2017-09-26T09:16:58.122Z,7.85
2017-09-26T09:17:58.112Z,7.85
2017-09-26T09:18:58.102Z,7.34
2017-09-26T09:19:58.089Z,7.12
2017-09-26T09:20:58.078Z,7.68
2017-09-26T09:21:58.066Z,7.87
2017-09-26T09:22:58.056Z,8.01
2017-09-26T09:23:58.044Z,8.07
2017-09-26T09:24:58.039Z,8.10
2017-09-26T09:25:58.020Z,8.56
2017-09-26T09:26:58.009Z,8.20
2017-09-26T09:27:57.999Z,8.50
2017-09-26T09:28:57.986Z,8.28
2017-09-26T09:29:57.975Z,8.01
2017-09-26T09:30:57.964Z,8.18
2017-09-26T09:31:57.953Z,8.29
2017-09-26T09:32:57.942Z,8.23
2017-09-26T09:33:57.930Z,8.36
2017-09-26T09:34:57.918Z,8.34
2017-09-26T09:35:57.908Z,7.82
2017-09-26T09:36:57.896Z,7.34
2017-09-26T09:37:57.885Z,7.43
2017-09-26T09:38:57.874Z,7.80
2017-09-26T09:39:57.863Z,8.15
2017-09-26T09:40:57.850Z,7.83
2017-09-26T09:41:57.868Z,7.21
2017-09-26T09:42:57.828Z,6.41
2017-09-26T09:43:57.818Z,5.82
2017-09-26T09:44:57.807Z,5.40
2017-09-26T09:45:57.795Z,5.27
2017-09-26T09:46:57.784Z,5.79
2017-09-26T09:47:57.772Z,5.27
2017-09-26T09:48:57.760Z,5.57
2017-09-26T09:49:57.749Z,5.86
2017-09-26T09:50:57.738Z,6.25
2017-09-26T09:51:57.727Z,6.58
2017-09-26T09:52:57.715Z,7.37
2017-09-26T09:53:57.703Z,8.15
2017-09-26T09:54:57.693Z,8.80
2017-09-26T09:55:57.682Z,9.51
2017-09-26T09:56:57.670Z,9.83
2017-09-26T09:57:57.660Z,9.91
2017-09-26T09:58:57.650Z,9.75
2017-09-26T09:59:57.640Z,9.94
2017-09-26T10:00:57.629Z,10.25
2017-09-26T10:01:57.619Z,9.79
2017-09-26T10:02:57.609Z,9.69
2017-09-26T10:03:57.600Z,8.38
2017-09-26T10:04:57.589Z,7.89
2017-09-26T10:05:57.578Z,7.46
2017-09-26T10:06:57.568Z,7.53
2017-09-26T10:07:57.560Z,8.12
2017-09-26T10:08:57.549Z,8.26
2017-09-26T10:09:57.535Z,8.52
2017-09-26T10:10:57.524Z,8.83
2017-09-26T10:11:57.513Z,9.17
2017-09-26T10:12:57.502Z,9.08
2017-09-26T10:13:57.493Z,9.60
2017-09-26T10:14:57.510Z,10.02
2017-09-26T10:15:57.471Z,10.48
2017-09-26T10:16:57.460Z,9.99
2017-09-26T10:17:57.450Z,10.11
2017-09-26T10:18:57.439Z,9.72
2017-09-26T10:19:57.430Z,9.02
2017-09-26T10:20:57.424Z,7.87
2017-09-26T10:21:57.409Z,8.01
2017-09-26T10:22:57.398Z,7.92
2017-09-26T10:23:57.390Z,7.35
2017-09-26T10:24:57.376Z,7.53
2017-09-26T10:25:57.364Z,7.60
2017-09-26T10:26:57.354Z,7.46
2017-09-26T10:27:57.343Z,7.49
2017-09-26T10:28:57.331Z,7.53
2017-09-26T10:29:57.320Z,7.28
2017-09-26T10:30:57.309Z,6.77
2017-09-26T10:31:57.297Z,6.80
2017-09-26T10:32:57.286Z,6.89
2017-09-26T10:33:57.275Z,6.38
2017-09-26T10:34:57.264Z,6.03
2017-09-26T10:35:57.253Z,5.91
2017-09-26T10:36:57.241Z,6.15
2017-09-26T10:37:57.229Z,6.58
2017-09-26T10:38:57.218Z,6.95
2017-09-26T10:39:57.207Z,6.80
2017-09-26T10:40:57.195Z,6.33
2017-09-26T10:41:57.184Z,5.93
2017-09-26T10:42:57.173Z,6.00
2017-09-26T10:43:57.161Z,6.41
2017-09-26T10:44:57.149Z,6.91
2017-09-26T10:45:57.137Z,7.43
2017-09-26T10:46:57.128Z,7.89
2017-09-26T10:47:57.116Z,8.34
2017-09-26T10:48:57.106Z,8.77
2017-09-26T10:49:57.093Z,8.84
2017-09-26T10:50:57.083Z,8.56
2017-09-26T10:51:57.072Z,8.07
2017-09-26T10:52:57.060Z,7.82
2017-09-26T10:53:57.050Z,7.34
2017-09-26T10:54:57.040Z,6.76
2017-09-26T10:55:57.028Z,6.31
2017-09-26T10:56:57.016Z,5.96
2017-09-26T10:57:57.005Z,5.21
2017-09-26T10:58:56.996Z,4.91
2017-09-26T10:59:56.982Z,4.84
2017-09-26T11:00:56.970Z,4.72
2017-09-26T11:01:56.958Z,4.84
2017-09-26T11:02:56.947Z,5.24
2017-09-26T11:03:56.936Z,5.90
2017-09-26T11:04:56.922Z,6.31
2017-09-26T11:05:56.910Z,6.62
2017-09-26T11:06:56.899Z,7.07
2017-09-26T11:07:56.888Z,7.45
2017-09-26T11:08:56.874Z,7.40
2017-09-26T11:09:56.864Z,7.34
2017-09-26T11:10:56.852Z,7.43
2017-09-26T11:11:56.843Z,7.49
2017-09-26T11:12:56.829Z,7.77
2017-09-26T11:13:56.818Z,7.95
2017-09-26T11:14:56.806Z,8.07
2017-09-26T11:15:56.823Z,8.11
2017-09-26T11:16:56.787Z,8.58
2017-09-26T11:17:56.771Z,8.65
2017-09-26T11:18:56.760Z,8.18
2017-09-26T11:19:56.748Z,8.36
2017-09-26T11:20:56.738Z,8.36
2017-09-26T11:21:56.725Z,8.66
2017-09-26T11:22:56.714Z,8.04
2017-09-26T11:23:56.702Z,8.16
2017-09-26T11:24:56.690Z,8.30
2017-09-26T11:25:56.679Z,8.50
2017-09-26T11:26:56.667Z,8.73
2017-09-26T11:27:56.657Z,8.33
2017-09-26T11:28:56.644Z,7.90
2017-09-26T11:29:56.633Z,8.18
2017-09-26T11:30:56.621Z,8.20
2017-09-26T11:31:56.610Z,9.02
2017-09-26T11:32:56.598Z,9.32
2017-09-26T11:33:56.587Z,9.11
2017-09-26T11:34:56.575Z,8.99
2017-09-26T11:35:56.564Z,8.98
2017-09-26T11:36:56.553Z,9.18
2017-09-26T11:37:56.541Z,9.46
2017-09-26T11:38:56.531Z,9.43
2017-09-26T11:39:56.521Z,9.53
2017-09-26T11:40:56.509Z,9.42
2017-09-26T11:41:56.500Z,9.24
2017-09-26T11:42:56.488Z,8.96
2017-09-26T11:43:56.478Z,9.08
2017-09-26T11:44:56.467Z,9.29
2017-09-26T11:45:56.456Z,8.74
2017-09-26T11:46:56.446Z,9.23
2017-09-26T11:47:56.436Z,9.31
2017-09-26T11:48:56.425Z,9.10
2017-09-26T11:49:56.418Z,9.14
2017-09-26T11:50:56.404Z,9.24
2017-09-26T11:51:56.393Z,9.08
2017-09-26T11:52:56.382Z,9.02
2017-09-26T11:53:56.378Z,8.50
2017-09-26T11:54:56.372Z,8.29
2017-09-26T11:55:56.352Z,8.15
2017-09-26T11:56:56.341Z,8.16
2017-09-26T11:57:56.330Z,8.00
2017-09-26T11:58:56.321Z,8.00
2017-09-26T11:59:56.311Z,7.83
2017-09-26T12:00:56.302Z,7.61
2017-09-26T12:01:56.289Z,7.15
2017-09-26T12:02:56.278Z,6.62
2017-09-26T12:03:56.268Z,6.43
2017-09-26T12:04:56.256Z,6.46
2017-09-26T12:05:56.245Z,6.67
2017-09-26T12:06:56.233Z,6.85
2017-09-26T12:07:56.222Z,7.06
2017-09-26T12:08:56.210Z,6.79
2017-09-26T12:09:56.198Z,6.73
2017-09-26T12:10:56.187Z,6.80
2017-09-26T12:11:56.175Z,6.91
2017-09-26T12:12:56.167Z,6.94
2017-09-26T12:13:56.152Z,7.09
2017-09-26T12:14:56.140Z,6.95
2017-09-26T12:15:56.129Z,6.44
2017-09-26T12:16:56.117Z,5.93
2017-09-26T12:17:56.105Z,5.78
2017-09-26T12:18:56.094Z,5.33
2017-09-26T12:19:56.081Z,5.49
2017-09-26T12:20:56.068Z,5.67
2017-09-26T12:21:56.055Z,5.85
2017-09-26T12:22:56.043Z,6.09
2017-09-26T12:23:56.031Z,6.55
2017-09-26T12:24:56.019Z,6.79
2017-09-26T12:25:56.007Z,7.28
2017-09-26T12:26:55.994Z,7.90
2017-09-26T12:27:55.982Z,8.41
2017-09-26T12:28:55.969Z,8.45
2017-09-26T12:29:55.957Z,8.07
2017-09-26T12:30:55.946Z,7.82
2017-09-26T12:31:55.940Z,7.72
2017-09-26T12:32:55.923Z,7.68
2017-09-26T12:33:55.912Z,7.64
2017-09-26T12:34:55.899Z,7.64
2017-09-26T12:35:55.888Z,7.37
2017-09-26T12:36:55.876Z,6.59
2017-09-26T12:37:55.865Z,6.30
2017-09-26T12:38:55.854Z,6.49
2017-09-26T12:39:55.842Z,6.80
2017-09-26T12:40:55.829Z,7.09
2017-09-26T12:41:55.818Z,7.12
2017-09-26T12:42:59.073Z,7.03
2017-09-26T12:43:55.795Z,7.05
2017-09-26T12:44:55.782Z,7.02
2017-09-26T12:45:55.770Z,6.95
2017-09-26T12:46:55.765Z,6.95
2017-09-26T12:47:55.748Z,6.92
2017-09-26T12:48:55.736Z,6.89
2017-09-26T12:49:55.729Z,6.87
2017-09-26T12:50:55.712Z,7.03
2017-09-26T12:51:55.700Z,7.05
2017-09-26T12:52:55.687Z,7.48
2017-09-26T12:53:55.676Z,8.11
2017-09-26T12:54:55.665Z,8.37
2017-09-26T12:55:55.653Z,8.76
2017-09-26T12:56:55.641Z,8.50
2017-09-26T12:57:55.629Z,8.37
2017-09-26T12:58:55.619Z,8.37
2017-09-26T12:59:55.607Z,8.34
2017-09-26T13:00:55.595Z,8.43
2017-09-26T13:01:55.591Z,8.36
2017-09-26T13:02:55.572Z,8.37
2017-09-26T13:03:55.562Z,8.25
2017-09-26T13:04:55.550Z,7.83
2017-09-26T13:05:55.540Z,7.63
2017-09-26T13:06:55.528Z,7.42
2017-09-26T13:07:55.517Z,7.10
2017-09-26T13:08:55.505Z,6.76
2017-09-26T13:09:55.493Z,6.64
2017-09-26T13:10:55.483Z,6.34
2017-09-26T13:11:55.471Z,6.15
2017-09-26T13:12:55.457Z,6.00
2017-09-26T13:13:55.445Z,5.90
2017-09-26T13:14:55.433Z,5.75
2017-09-26T13:15:55.422Z,5.33
2017-09-26T13:16:55.408Z,5.28
2017-09-26T13:17:55.395Z,5.21